sensor_id;sensor_type;location;lat;lon;timestamp;P1;durP1;ratioP1;P2;durP2;ratioP2
21554;SDS011;10938;44.794;-0.676;2022-10-31T00:01:26;16.23;;;10.27;;
21554;SDS011;10938;44.794;-0.676;2022-10-31T00:03:55;20.52;;;10.93;;
21554;SDS011;10938;44.794;-0.676;2022-10-31T00:06:21;19.10;;;10.02;;
21554;SDS011;10938;44.794;-0.676;2022-10-31T00:08:51;17.70;;;10.23;;
21554;SDS011;10938;44.794;-0.676;2022-10-31T00:11:18;21.58;;;11.52;;
21554;SDS011;10938;44.794;-0.676;2022-10-31T00:13:44;18.98;;;11.05;;
21554;SDS011;10938;44.794;-0.676;2022-10-31T00:16:23;20.80;;;10.68;;
21554;SDS011;10938;44.794;-0.676;2022-10-31T00:18:52;15.90;;;10.43;;
21554;SDS011;10938;44.794;-0.676;2022-10-31T00:21:20;19.55;;;10.50;;
21554;SDS011;10938;44.794;-0.676;2022-10-31T00:23:46;22.80;;;11.65;;
21554;SDS011;10938;44.794;-0.676;2022-10-31T00:26:12;17.05;;;10.32;;
21554;SDS011;10938;44.794;-0.676;2022-10-31T00:28:37;17.35;;;11.38;;
21554;SDS011;10938;44.794;-0.676;2022-10-31T00:31:04;20.50;;;10.95;;
21554;SDS011;10938;44.794;-0.676;2022-10-31T00:33:33;17.30;;;10.63;;
21554;SDS011;10938;44.794;-0.676;2022-10-31T00:36:00;14.77;;;9.05;;
21554;SDS011;10938;44.794;-0.676;2022-10-31T00:38:25;15.35;;;9.75;;
21554;SDS011;10938;44.794;-0.676;2022-10-31T00:40:51;17.40;;;9.82;;
21554;SDS011;10938;44.794;-0.676;2022-10-31T00:43:16;17.85;;;10.80;;
21554;SDS011;10938;44.794;-0.676;2022-10-31T00:45:42;18.50;;;11.38;;
21554;SDS011;10938;44.794;-0.676;2022-10-31T00:48:08;17.83;;;10.90;;
21554;SDS011;10938;44.794;-0.676;2022-10-31T00:50:33;19.15;;;10.70;;
21554;SDS011;10938;44.794;-0.676;2022-10-31T00:52:59;16.58;;;9.80;;
21554;SDS011;10938;44.794;-0.676;2022-10-31T00:55:24;15.85;;;9.15;;
21554;SDS011;10938;44.794;-0.676;2022-10-31T00:57:50;18.02;;;9.25;;
21554;SDS011;10938;44.794;-0.676;2022-10-31T01:00:15;13.73;;;9.43;;
21554;SDS011;10938;44.794;-0.676;2022-10-31T01:02:41;15.68;;;9.23;;
21554;SDS011;10938;44.794;-0.676;2022-10-31T01:05:06;18.33;;;9.85;;
21554;SDS011;10938;44.794;-0.676;2022-10-31T01:07:35;17.73;;;9.85;;
21554;SDS011;10938;44.794;-0.676;2022-10-31T01:10:01;18.83;;;9.93;;
21554;SDS011;10938;44.794;-0.676;2022-10-31T01:12:26;15.38;;;9.27;;
21554;SDS011;10938;44.794;-0.676;2022-10-31T01:14:52;17.08;;;9.20;;
21554;SDS011;10938;44.794;-0.676;2022-10-31T01:17:17;40.47;;;10.95;;
21554;SDS011;10938;44.794;-0.676;2022-10-31T01:19:42;91.40;;;15.93;;
21554;SDS011;10938;44.794;-0.676;2022-10-31T01:22:08;26.63;;;12.18;;
21554;SDS011;10938;44.794;-0.676;2022-10-31T01:24:33;21.55;;;11.82;;
21554;SDS011;10938;44.794;-0.676;2022-10-31T01:26:59;27.50;;;13.95;;
21554;SDS011;10938;44.794;-0.676;2022-10-31T01:29:24;32.53;;;14.02;;
21554;SDS011;10938;44.794;-0.676;2022-10-31T01:31:50;34.05;;;14.52;;
21554;SDS011;10938;44.794;-0.676;2022-10-31T01:34:16;38.28;;;15.90;;
21554;SDS011;10938;44.794;-0.676;2022-10-31T01:36:42;25.33;;;13.85;;
21554;SDS011;10938;44.794;-0.676;2022-10-31T01:39:14;27.35;;;13.13;;
21554;SDS011;10938;44.794;-0.676;2022-10-31T01:41:44;23.88;;;12.05;;
21554;SDS011;10938;44.794;-0.676;2022-10-31T01:46:40;33.72;;;15.50;;
21554;SDS011;10938;44.794;-0.676;2022-10-31T01:49:11;39.38;;;19.15;;
21554;SDS011;10938;44.794;-0.676;2022-10-31T01:51:57;36.50;;;17.55;;
21554;SDS011;10938;44.794;-0.676;2022-10-31T01:54:47;37.65;;;16.52;;
21554;SDS011;10938;44.794;-0.676;2022-10-31T01:57:16;37.20;;;17.83;;
21554;SDS011;10938;44.794;-0.676;2022-10-31T01:59:45;30.08;;;15.38;;
21554;SDS011;10938;44.794;-0.676;2022-10-31T02:02:14;30.45;;;15.23;;
21554;SDS011;10938;44.794;-0.676;2022-10-31T02:04:41;30.33;;;16.15;;
21554;SDS011;10938;44.794;-0.676;2022-10-31T02:07:10;27.17;;;15.05;;
21554;SDS011;10938;44.794;-0.676;2022-10-31T02:09:40;32.13;;;16.30;;
21554;SDS011;10938;44.794;-0.676;2022-10-31T02:12:06;33.70;;;17.52;;
21554;SDS011;10938;44.794;-0.676;2022-10-31T02:14:33;32.03;;;17.23;;
21554;SDS011;10938;44.794;-0.676;2022-10-31T02:17:00;34.17;;;17.15;;
21554;SDS011;10938;44.794;-0.676;2022-10-31T02:19:39;30.58;;;17.17;;
21554;SDS011;10938;44.794;-0.676;2022-10-31T02:22:16;36.35;;;18.35;;
21554;SDS011;10938;44.794;-0.676;2022-10-31T02:33:25;38.85;;;17.27;;
21554;SDS011;10938;44.794;-0.676;2022-10-31T02:49:28;35.58;;;18.10;;
21554;SDS011;10938;44.794;-0.676;2022-10-31T02:52:13;29.65;;;16.25;;
21554;SDS011;10938;44.794;-0.676;2022-10-31T02:54:45;34.80;;;17.35;;
21554;SDS011;10938;44.794;-0.676;2022-10-31T02:57:12;38.35;;;18.45;;
21554;SDS011;10938;44.794;-0.676;2022-10-31T02:59:40;30.88;;;17.33;;
21554;SDS011;10938;44.794;-0.676;2022-10-31T03:02:20;28.10;;;15.30;;
21554;SDS011;10938;44.794;-0.676;2022-10-31T03:04:55;34.90;;;17.30;;
21554;SDS011;10938;44.794;-0.676;2022-10-31T03:15:14;31.92;;;17.45;;
21554;SDS011;10938;44.794;-0.676;2022-10-31T03:17:47;43.97;;;19.83;;
21554;SDS011;10938;44.794;-0.676;2022-10-31T03:20:33;26.73;;;16.38;;
21554;SDS011;10938;44.794;-0.676;2022-10-31T03:23:03;41.72;;;19.55;;
21554;SDS011;10938;44.794;-0.676;2022-10-31T03:25:31;29.95;;;17.08;;
21554;SDS011;10938;44.794;-0.676;2022-10-31T03:28:01;39.35;;;18.83;;
21554;SDS011;10938;44.794;-0.676;2022-10-31T03:30:27;31.17;;;17.17;;
21554;SDS011;10938;44.794;-0.676;2022-10-31T03:32:55;37.22;;;19.85;;
21554;SDS011;10938;44.794;-0.676;2022-10-31T03:35:24;32.92;;;18.65;;
21554;SDS011;10938;44.794;-0.676;2022-10-31T03:37:52;38.20;;;19.55;;
21554;SDS011;10938;44.794;-0.676;2022-10-31T03:40:20;47.58;;;22.60;;
21554;SDS011;10938;44.794;-0.676;2022-10-31T03:42:51;41.75;;;21.85;;
21554;SDS011;10938;44.794;-0.676;2022-10-31T03:45:23;54.03;;;26.00;;
21554;SDS011;10938;44.794;-0.676;2022-10-31T03:47:50;49.70;;;26.77;;
21554;SDS011;10938;44.794;-0.676;2022-10-31T03:50:18;42.92;;;25.23;;
21554;SDS011;10938;44.794;-0.676;2022-10-31T03:55:39;57.88;;;28.83;;
21554;SDS011;10938;44.794;-0.676;2022-10-31T03:58:15;69.82;;;31.50;;
21554;SDS011;10938;44.794;-0.676;2022-10-31T04:00:49;51.05;;;26.30;;
21554;SDS011;10938;44.794;-0.676;2022-10-31T04:03:19;40.97;;;24.00;;
21554;SDS011;10938;44.794;-0.676;2022-10-31T04:05:47;47.75;;;25.80;;
21554;SDS011;10938;44.794;-0.676;2022-10-31T04:08:17;46.83;;;25.35;;
21554;SDS011;10938;44.794;-0.676;2022-10-31T04:10:47;46.95;;;23.65;;
21554;SDS011;10938;44.794;-0.676;2022-10-31T04:13:16;44.58;;;24.25;;
21554;SDS011;10938;44.794;-0.676;2022-10-31T04:15:45;39.58;;;22.77;;
21554;SDS011;10938;44.794;-0.676;2022-10-31T04:18:12;40.00;;;22.10;;
21554;SDS011;10938;44.794;-0.676;2022-10-31T04:20:39;36.30;;;20.58;;
21554;SDS011;10938;44.794;-0.676;2022-10-31T04:23:19;38.78;;;23.52;;
21554;SDS011;10938;44.794;-0.676;2022-10-31T04:25:47;37.30;;;21.13;;
21554;SDS011;10938;44.794;-0.676;2022-10-31T04:28:12;34.70;;;20.98;;
21554;SDS011;10938;44.794;-0.676;2022-10-31T04:30:38;39.67;;;20.85;;
21554;SDS011;10938;44.794;-0.676;2022-10-31T04:33:03;30.98;;;19.67;;
21554;SDS011;10938;44.794;-0.676;2022-10-31T04:35:28;35.47;;;19.83;;
21554;SDS011;10938;44.794;-0.676;2022-10-31T04:37:54;36.28;;;20.25;;
21554;SDS011;10938;44.794;-0.676;2022-10-31T04:40:19;42.75;;;19.60;;
21554;SDS011;10938;44.794;-0.676;2022-10-31T04:42:44;35.28;;;19.20;;
21554;SDS011;10938;44.794;-0.676;2022-10-31T04:45:10;28.40;;;17.63;;
21554;SDS011;10938;44.794;-0.676;2022-10-31T04:47:35;30.00;;;17.50;;
21554;SDS011;10938;44.794;-0.676;2022-10-31T04:50:01;34.15;;;17.88;;
21554;SDS011;10938;44.794;-0.676;2022-10-31T04:52:27;28.77;;;15.80;;
21554;SDS011;10938;44.794;-0.676;2022-10-31T04:54:53;33.72;;;17.30;;
21554;SDS011;10938;44.794;-0.676;2022-10-31T04:57:18;28.63;;;15.07;;
21554;SDS011;10938;44.794;-0.676;2022-10-31T04:59:43;28.50;;;14.80;;
21554;SDS011;10938;44.794;-0.676;2022-10-31T05:02:09;27.33;;;15.00;;
21554;SDS011;10938;44.794;-0.676;2022-10-31T05:04:34;25.75;;;14.93;;
21554;SDS011;10938;44.794;-0.676;2022-10-31T05:06:59;23.77;;;13.55;;
21554;SDS011;10938;44.794;-0.676;2022-10-31T05:09:25;25.52;;;14.80;;
21554;SDS011;10938;44.794;-0.676;2022-10-31T05:11:50;28.88;;;14.85;;
21554;SDS011;10938;44.794;-0.676;2022-10-31T05:14:15;28.10;;;13.27;;
21554;SDS011;10938;44.794;-0.676;2022-10-31T05:16:41;25.35;;;12.95;;
21554;SDS011;10938;44.794;-0.676;2022-10-31T05:19:06;24.80;;;12.93;;
21554;SDS011;10938;44.794;-0.676;2022-10-31T05:21:31;21.17;;;12.75;;
21554;SDS011;10938;44.794;-0.676;2022-10-31T05:23:57;22.02;;;12.00;;
21554;SDS011;10938;44.794;-0.676;2022-10-31T05:26:22;23.20;;;12.10;;
21554;SDS011;10938;44.794;-0.676;2022-10-31T05:28:48;27.77;;;12.55;;
21554;SDS011;10938;44.794;-0.676;2022-10-31T05:31:13;22.63;;;12.13;;
21554;SDS011;10938;44.794;-0.676;2022-10-31T05:33:39;22.55;;;12.05;;
21554;SDS011;10938;44.794;-0.676;2022-10-31T05:36:04;20.15;;;12.02;;
21554;SDS011;10938;44.794;-0.676;2022-10-31T05:38:30;24.50;;;11.13;;
21554;SDS011;10938;44.794;-0.676;2022-10-31T05:40:55;21.55;;;11.40;;
21554;SDS011;10938;44.794;-0.676;2022-10-31T05:43:23;28.60;;;12.05;;
21554;SDS011;10938;44.794;-0.676;2022-10-31T05:45:51;19.50;;;11.00;;
21554;SDS011;10938;44.794;-0.676;2022-10-31T05:48:17;17.10;;;10.88;;
21554;SDS011;10938;44.794;-0.676;2022-10-31T05:50:43;22.70;;;12.32;;
21554;SDS011;10938;44.794;-0.676;2022-10-31T05:53:08;21.38;;;10.82;;
21554;SDS011;10938;44.794;-0.676;2022-10-31T05:55:34;20.48;;;11.80;;
21554;SDS011;10938;44.794;-0.676;2022-10-31T05:57:59;21.40;;;11.18;;
21554;SDS011;10938;44.794;-0.676;2022-10-31T06:00:25;20.60;;;10.82;;
21554;SDS011;10938;44.794;-0.676;2022-10-31T06:03:01;20.85;;;10.63;;
21554;SDS011;10938;44.794;-0.676;2022-10-31T06:05:31;24.63;;;11.55;;
21554;SDS011;10938;44.794;-0.676;2022-10-31T06:07:57;20.60;;;10.85;;
21554;SDS011;10938;44.794;-0.676;2022-10-31T06:10:22;24.50;;;10.10;;
21554;SDS011;10938;44.794;-0.676;2022-10-31T06:12:48;24.00;;;11.13;;
21554;SDS011;10938;44.794;-0.676;2022-10-31T06:15:14;27.17;;;11.02;;
21554;SDS011;10938;44.794;-0.676;2022-10-31T06:17:40;24.83;;;11.63;;
21554;SDS011;10938;44.794;-0.676;2022-10-31T06:20:05;30.45;;;11.23;;
21554;SDS011;10938;44.794;-0.676;2022-10-31T06:22:32;18.20;;;10.55;;
21554;SDS011;10938;44.794;-0.676;2022-10-31T06:24:57;20.80;;;10.60;;
21554;SDS011;10938;44.794;-0.676;2022-10-31T06:27:23;23.58;;;10.45;;
21554;SDS011;10938;44.794;-0.676;2022-10-31T06:29:48;21.30;;;11.55;;
21554;SDS011;10938;44.794;-0.676;2022-10-31T06:32:14;25.02;;;11.95;;
21554;SDS011;10938;44.794;-0.676;2022-10-31T06:34:40;21.05;;;10.43;;
21554;SDS011;10938;44.794;-0.676;2022-10-31T06:37:07;17.05;;;10.48;;
21554;SDS011;10938;44.794;-0.676;2022-10-31T06:39:34;22.33;;;11.15;;
21554;SDS011;10938;44.794;-0.676;2022-10-31T06:41:59;21.55;;;10.75;;
21554;SDS011;10938;44.794;-0.676;2022-10-31T06:44:25;21.05;;;10.02;;
21554;SDS011;10938;44.794;-0.676;2022-10-31T06:46:50;18.95;;;11.25;;
21554;SDS011;10938;44.794;-0.676;2022-10-31T06:49:16;22.58;;;10.75;;
21554;SDS011;10938;44.794;-0.676;2022-10-31T06:51:42;23.85;;;10.73;;
21554;SDS011;10938;44.794;-0.676;2022-10-31T06:54:08;16.92;;;9.90;;
21554;SDS011;10938;44.794;-0.676;2022-10-31T06:56:34;16.42;;;9.57;;
21554;SDS011;10938;44.794;-0.676;2022-10-31T06:58:59;20.83;;;9.80;;
21554;SDS011;10938;44.794;-0.676;2022-10-31T07:01:24;21.15;;;9.88;;
21554;SDS011;10938;44.794;-0.676;2022-10-31T07:03:50;20.08;;;9.30;;
21554;SDS011;10938;44.794;-0.676;2022-10-31T07:06:15;18.38;;;9.68;;
21554;SDS011;10938;44.794;-0.676;2022-10-31T07:08:41;25.40;;;10.95;;
21554;SDS011;10938;44.794;-0.676;2022-10-31T07:11:06;21.48;;;9.73;;
21554;SDS011;10938;44.794;-0.676;2022-10-31T07:13:32;21.73;;;10.27;;
21554;SDS011;10938;44.794;-0.676;2022-10-31T07:16:02;21.83;;;10.52;;
21554;SDS011;10938;44.794;-0.676;2022-10-31T07:18:28;22.45;;;9.55;;
21554;SDS011;10938;44.794;-0.676;2022-10-31T07:20:54;18.92;;;9.07;;
21554;SDS011;10938;44.794;-0.676;2022-10-31T07:23:19;20.83;;;9.30;;
21554;SDS011;10938;44.794;-0.676;2022-10-31T07:25:45;16.77;;;9.52;;
21554;SDS011;10938;44.794;-0.676;2022-10-31T07:28:11;24.30;;;9.88;;
21554;SDS011;10938;44.794;-0.676;2022-10-31T07:30:37;17.25;;;8.52;;
21554;SDS011;10938;44.794;-0.676;2022-10-31T07:33:03;20.88;;;8.48;;
21554;SDS011;10938;44.794;-0.676;2022-10-31T07:35:30;21.75;;;8.43;;
21554;SDS011;10938;44.794;-0.676;2022-10-31T07:37:56;16.70;;;8.85;;
21554;SDS011;10938;44.794;-0.676;2022-10-31T07:40:22;20.83;;;8.65;;
21554;SDS011;10938;44.794;-0.676;2022-10-31T07:42:49;23.33;;;8.50;;
21554;SDS011;10938;44.794;-0.676;2022-10-31T07:45:17;16.98;;;7.97;;
21554;SDS011;10938;44.794;-0.676;2022-10-31T07:47:48;15.88;;;8.32;;
21554;SDS011;10938;44.794;-0.676;2022-10-31T07:50:25;16.17;;;7.80;;
21554;SDS011;10938;44.794;-0.676;2022-10-31T07:53:02;20.17;;;8.57;;
21554;SDS011;10938;44.794;-0.676;2022-10-31T07:55:31;18.38;;;7.60;;
21554;SDS011;10938;44.794;-0.676;2022-10-31T07:57:57;19.75;;;8.27;;
21554;SDS011;10938;44.794;-0.676;2022-10-31T08:00:27;17.15;;;7.78;;
21554;SDS011;10938;44.794;-0.676;2022-10-31T08:03:00;13.88;;;7.90;;
21554;SDS011;10938;44.794;-0.676;2022-10-31T08:05:27;16.30;;;7.43;;
21554;SDS011;10938;44.794;-0.676;2022-10-31T08:07:53;19.85;;;7.82;;
21554;SDS011;10938;44.794;-0.676;2022-10-31T08:10:19;16.48;;;8.13;;
21554;SDS011;10938;44.794;-0.676;2022-10-31T08:12:44;24.40;;;7.30;;
21554;SDS011;10938;44.794;-0.676;2022-10-31T08:15:10;15.27;;;7.07;;
21554;SDS011;10938;44.794;-0.676;2022-10-31T08:17:35;16.13;;;7.35;;
21554;SDS011;10938;44.794;-0.676;2022-10-31T08:20:02;17.25;;;7.55;;
21554;SDS011;10938;44.794;-0.676;2022-10-31T08:22:31;18.23;;;7.78;;
21554;SDS011;10938;44.794;-0.676;2022-10-31T08:24:56;18.55;;;8.07;;
21554;SDS011;10938;44.794;-0.676;2022-10-31T08:27:22;15.60;;;7.38;;
21554;SDS011;10938;44.794;-0.676;2022-10-31T08:29:48;17.85;;;7.18;;
21554;SDS011;10938;44.794;-0.676;2022-10-31T08:32:13;20.83;;;7.18;;
21554;SDS011;10938;44.794;-0.676;2022-10-31T08:34:39;23.98;;;7.05;;
21554;SDS011;10938;44.794;-0.676;2022-10-31T08:37:04;12.05;;;6.05;;
21554;SDS011;10938;44.794;-0.676;2022-10-31T08:39:29;15.48;;;6.97;;
21554;SDS011;10938;44.794;-0.676;2022-10-31T08:41:55;14.20;;;7.18;;
21554;SDS011;10938;44.794;-0.676;2022-10-31T08:44:20;21.50;;;7.18;;
21554;SDS011;10938;44.794;-0.676;2022-10-31T08:46:46;17.65;;;6.82;;
21554;SDS011;10938;44.794;-0.676;2022-10-31T08:49:11;14.55;;;6.78;;
21554;SDS011;10938;44.794;-0.676;2022-10-31T08:51:37;19.52;;;7.00;;
21554;SDS011;10938;44.794;-0.676;2022-10-31T08:54:02;18.25;;;6.72;;
21554;SDS011;10938;44.794;-0.676;2022-10-31T08:56:28;13.48;;;6.45;;
21554;SDS011;10938;44.794;-0.676;2022-10-31T08:58:53;22.45;;;7.22;;
21554;SDS011;10938;44.794;-0.676;2022-10-31T09:01:19;16.38;;;6.68;;
21554;SDS011;10938;44.794;-0.676;2022-10-31T09:03:44;17.10;;;6.40;;
21554;SDS011;10938;44.794;-0.676;2022-10-31T09:06:10;15.25;;;7.43;;
21554;SDS011;10938;44.794;-0.676;2022-10-31T09:08:35;17.63;;;6.65;;
21554;SDS011;10938;44.794;-0.676;2022-10-31T09:11:02;14.23;;;6.85;;
21554;SDS011;10938;44.794;-0.676;2022-10-31T09:13:28;18.67;;;6.35;;
21554;SDS011;10938;44.794;-0.676;2022-10-31T09:15:55;15.32;;;6.85;;
21554;SDS011;10938;44.794;-0.676;2022-10-31T09:18:22;16.83;;;6.63;;
21554;SDS011;10938;44.794;-0.676;2022-10-31T09:20:48;16.88;;;6.88;;
21554;SDS011;10938;44.794;-0.676;2022-10-31T09:23:16;13.80;;;6.53;;
21554;SDS011;10938;44.794;-0.676;2022-10-31T09:25:43;16.23;;;5.90;;
21554;SDS011;10938;44.794;-0.676;2022-10-31T09:28:10;18.05;;;7.20;;
21554;SDS011;10938;44.794;-0.676;2022-10-31T09:30:37;19.45;;;6.57;;
21554;SDS011;10938;44.794;-0.676;2022-10-31T09:33:06;14.57;;;6.70;;
21554;SDS011;10938;44.794;-0.676;2022-10-31T09:35:34;17.05;;;6.20;;
21554;SDS011;10938;44.794;-0.676;2022-10-31T09:38:01;16.88;;;6.30;;
21554;SDS011;10938;44.794;-0.676;2022-10-31T09:40:37;18.10;;;6.15;;
21554;SDS011;10938;44.794;-0.676;2022-10-31T09:57:27;16.55;;;5.95;;
21554;SDS011;10938;44.794;-0.676;2022-10-31T09:59:55;11.90;;;5.78;;
21554;SDS011;10938;44.794;-0.676;2022-10-31T10:02:27;13.65;;;5.80;;
21554;SDS011;10938;44.794;-0.676;2022-10-31T10:05:03;15.90;;;6.18;;
21554;SDS011;10938;44.794;-0.676;2022-10-31T10:10:26;14.35;;;5.75;;
21554;SDS011;10938;44.794;-0.676;2022-10-31T10:18:41;10.57;;;5.18;;
21554;SDS011;10938;44.794;-0.676;2022-10-31T10:27:16;15.45;;;5.35;;
21554;SDS011;10938;44.794;-0.676;2022-10-31T10:30:00;13.05;;;5.05;;
21554;SDS011;10938;44.794;-0.676;2022-10-31T10:32:30;14.32;;;5.22;;
21554;SDS011;10938;44.794;-0.676;2022-10-31T10:35:25;13.13;;;5.45;;
21554;SDS011;10938;44.794;-0.676;2022-10-31T10:38:02;14.50;;;5.88;;
21554;SDS011;10938;44.794;-0.676;2022-10-31T10:40:29;16.02;;;6.18;;
21554;SDS011;10938;44.794;-0.676;2022-10-31T10:45:46;10.60;;;5.28;;
21554;SDS011;10938;44.794;-0.676;2022-10-31T10:48:38;12.93;;;5.70;;
21554;SDS011;10938;44.794;-0.676;2022-10-31T10:51:15;13.60;;;5.70;;
21554;SDS011;10938;44.794;-0.676;2022-10-31T10:57:02;11.15;;;5.53;;
21554;SDS011;10938;44.794;-0.676;2022-10-31T10:59:49;13.73;;;5.45;;
21554;SDS011;10938;44.794;-0.676;2022-10-31T11:02:26;14.48;;;5.75;;
21554;SDS011;10938;44.794;-0.676;2022-10-31T11:04:53;15.52;;;5.93;;
21554;SDS011;10938;44.794;-0.676;2022-10-31T11:07:21;13.82;;;5.55;;
21554;SDS011;10938;44.794;-0.676;2022-10-31T11:09:47;17.48;;;5.95;;
21554;SDS011;10938;44.794;-0.676;2022-10-31T11:12:17;16.17;;;5.57;;
21554;SDS011;10938;44.794;-0.676;2022-10-31T11:14:48;12.50;;;5.55;;
21554;SDS011;10938;44.794;-0.676;2022-10-31T11:17:21;13.93;;;5.20;;
21554;SDS011;10938;44.794;-0.676;2022-10-31T11:19:47;12.88;;;5.15;;
21554;SDS011;10938;44.794;-0.676;2022-10-31T11:22:16;17.08;;;5.75;;
21554;SDS011;10938;44.794;-0.676;2022-10-31T11:24:43;11.02;;;4.93;;
21554;SDS011;10938;44.794;-0.676;2022-10-31T11:27:11;15.13;;;6.20;;
21554;SDS011;10938;44.794;-0.676;2022-10-31T11:32:16;12.30;;;4.97;;
21554;SDS011;10938;44.794;-0.676;2022-10-31T11:34:45;15.13;;;5.97;;
21554;SDS011;10938;44.794;-0.676;2022-10-31T11:37:21;14.02;;;5.95;;
21554;SDS011;10938;44.794;-0.676;2022-10-31T11:39:53;19.52;;;5.90;;
21554;SDS011;10938;44.794;-0.676;2022-10-31T11:42:21;20.40;;;5.95;;
21554;SDS011;10938;44.794;-0.676;2022-10-31T11:44:48;17.05;;;6.32;;
21554;SDS011;10938;44.794;-0.676;2022-10-31T11:47:16;15.00;;;5.85;;
21554;SDS011;10938;44.794;-0.676;2022-10-31T11:49:46;16.08;;;6.20;;
21554;SDS011;10938;44.794;-0.676;2022-10-31T11:52:19;20.33;;;6.80;;
21554;SDS011;10938;44.794;-0.676;2022-10-31T11:57:27;13.68;;;5.50;;
21554;SDS011;10938;44.794;-0.676;2022-10-31T11:59:58;12.30;;;6.18;;
21554;SDS011;10938;44.794;-0.676;2022-10-31T12:02:28;7.75;;;4.95;;
21554;SDS011;10938;44.794;-0.676;2022-10-31T12:07:42;10.90;;;5.50;;
21554;SDS011;10938;44.794;-0.676;2022-10-31T12:10:11;12.50;;;5.50;;
21554;SDS011;10938;44.794;-0.676;2022-10-31T12:23:53;12.63;;;5.28;;
21554;SDS011;10938;44.794;-0.676;2022-10-31T12:37:09;14.15;;;5.05;;
21554;SDS011;10938;44.794;-0.676;2022-10-31T12:45:09;11.32;;;4.75;;
21554;SDS011;10938;44.794;-0.676;2022-10-31T12:52:59;9.68;;;4.82;;
21554;SDS011;10938;44.794;-0.676;2022-10-31T12:58:33;16.75;;;4.90;;
21554;SDS011;10938;44.794;-0.676;2022-10-31T13:01:06;19.48;;;5.18;;
21554;SDS011;10938;44.794;-0.676;2022-10-31T13:03:48;15.98;;;4.70;;
21554;SDS011;10938;44.794;-0.676;2022-10-31T13:06:24;14.90;;;5.33;;
21554;SDS011;10938;44.794;-0.676;2022-10-31T13:09:18;13.38;;;5.30;;
21554;SDS011;10938;44.794;-0.676;2022-10-31T13:11:58;16.42;;;5.22;;
21554;SDS011;10938;44.794;-0.676;2022-10-31T13:14:29;19.38;;;5.65;;
21554;SDS011;10938;44.794;-0.676;2022-10-31T13:17:00;14.93;;;5.80;;
21554;SDS011;10938;44.794;-0.676;2022-10-31T13:19:31;12.90;;;5.57;;
21554;SDS011;10938;44.794;-0.676;2022-10-31T13:24:32;10.15;;;4.90;;
21554;SDS011;10938;44.794;-0.676;2022-10-31T13:27:02;13.77;;;6.10;;
21554;SDS011;10938;44.794;-0.676;2022-10-31T13:29:39;12.18;;;4.80;;
21554;SDS011;10938;44.794;-0.676;2022-10-31T13:32:09;15.35;;;5.40;;
21554;SDS011;10938;44.794;-0.676;2022-10-31T13:34:39;12.63;;;5.13;;
21554;SDS011;10938;44.794;-0.676;2022-10-31T13:45:16;14.20;;;5.93;;
21554;SDS011;10938;44.794;-0.676;2022-10-31T13:47:54;16.08;;;5.80;;
21554;SDS011;10938;44.794;-0.676;2022-10-31T13:52:50;13.55;;;4.88;;
21554;SDS011;10938;44.794;-0.676;2022-10-31T13:55:35;10.88;;;5.43;;
21554;SDS011;10938;44.794;-0.676;2022-10-31T14:03:35;14.23;;;5.75;;
21554;SDS011;10938;44.794;-0.676;2022-10-31T14:06:02;15.50;;;5.53;;
21554;SDS011;10938;44.794;-0.676;2022-10-31T14:08:29;9.80;;;5.00;;
21554;SDS011;10938;44.794;-0.676;2022-10-31T14:10:59;14.02;;;5.90;;
21554;SDS011;10938;44.794;-0.676;2022-10-31T14:13:27;12.15;;;5.43;;
21554;SDS011;10938;44.794;-0.676;2022-10-31T14:16:01;14.82;;;5.85;;
21554;SDS011;10938;44.794;-0.676;2022-10-31T14:18:38;13.80;;;5.43;;
21554;SDS011;10938;44.794;-0.676;2022-10-31T14:23:52;12.48;;;5.47;;
21554;SDS011;10938;44.794;-0.676;2022-10-31T14:28:56;10.93;;;4.82;;
21554;SDS011;10938;44.794;-0.676;2022-10-31T14:31:44;13.85;;;5.38;;
21554;SDS011;10938;44.794;-0.676;2022-10-31T14:44:56;11.82;;;5.15;;
21554;SDS011;10938;44.794;-0.676;2022-10-31T14:53:02;11.93;;;4.95;;
21554;SDS011;10938;44.794;-0.676;2022-10-31T14:55:30;9.82;;;5.07;;
21554;SDS011;10938;44.794;-0.676;2022-10-31T14:58:00;12.80;;;4.78;;
21554;SDS011;10938;44.794;-0.676;2022-10-31T15:00:29;11.52;;;4.75;;
21554;SDS011;10938;44.794;-0.676;2022-10-31T15:05:35;9.18;;;4.72;;
21554;SDS011;10938;44.794;-0.676;2022-10-31T15:08:13;11.77;;;4.68;;
21554;SDS011;10938;44.794;-0.676;2022-10-31T15:10:51;14.15;;;4.88;;
21554;SDS011;10938;44.794;-0.676;2022-10-31T15:13:18;10.35;;;4.72;;
21554;SDS011;10938;44.794;-0.676;2022-10-31T15:15:45;11.73;;;4.20;;
21554;SDS011;10938;44.794;-0.676;2022-10-31T15:18:19;7.25;;;3.67;;
21554;SDS011;10938;44.794;-0.676;2022-10-31T15:20:48;14.77;;;4.72;;
21554;SDS011;10938;44.794;-0.676;2022-10-31T15:23:23;10.57;;;4.57;;
21554;SDS011;10938;44.794;-0.676;2022-10-31T15:26:03;13.02;;;4.82;;
21554;SDS011;10938;44.794;-0.676;2022-10-31T15:28:30;10.52;;;4.35;;
21554;SDS011;10938;44.794;-0.676;2022-10-31T15:31:00;11.32;;;4.53;;
21554;SDS011;10938;44.794;-0.676;2022-10-31T15:33:28;12.40;;;4.28;;
21554;SDS011;10938;44.794;-0.676;2022-10-31T15:35:58;7.78;;;3.97;;
21554;SDS011;10938;44.794;-0.676;2022-10-31T15:38:25;12.60;;;5.13;;
21554;SDS011;10938;44.794;-0.676;2022-10-31T15:41:42;13.68;;;4.47;;
21554;SDS011;10938;44.794;-0.676;2022-10-31T15:43:46;9.18;;;4.18;;
21554;SDS011;10938;44.794;-0.676;2022-10-31T15:46:12;8.77;;;4.43;;
21554;SDS011;10938;44.794;-0.676;2022-10-31T15:48:38;9.43;;;4.10;;
21554;SDS011;10938;44.794;-0.676;2022-10-31T15:51:09;8.93;;;3.75;;
21554;SDS011;10938;44.794;-0.676;2022-10-31T15:53:41;9.50;;;3.90;;
21554;SDS011;10938;44.794;-0.676;2022-10-31T15:56:08;9.98;;;3.92;;
21554;SDS011;10938;44.794;-0.676;2022-10-31T15:58:44;10.15;;;4.30;;
21554;SDS011;10938;44.794;-0.676;2022-10-31T16:01:22;8.20;;;3.53;;
21554;SDS011;10938;44.794;-0.676;2022-10-31T16:04:00;8.63;;;3.60;;
21554;SDS011;10938;44.794;-0.676;2022-10-31T16:06:27;9.13;;;3.70;;
21554;SDS011;10938;44.794;-0.676;2022-10-31T16:08:53;6.65;;;3.92;;
21554;SDS011;10938;44.794;-0.676;2022-10-31T16:13:55;9.32;;;3.53;;
21554;SDS011;10938;44.794;-0.676;2022-10-31T16:16:24;9.90;;;4.00;;
21554;SDS011;10938;44.794;-0.676;2022-10-31T16:18:50;8.02;;;3.90;;
21554;SDS011;10938;44.794;-0.676;2022-10-31T16:21:30;9.25;;;4.10;;
21554;SDS011;10938;44.794;-0.676;2022-10-31T16:24:03;5.97;;;4.03;;
21554;SDS011;10938;44.794;-0.676;2022-10-31T16:26:38;15.00;;;4.15;;
21554;SDS011;10938;44.794;-0.676;2022-10-31T16:29:03;7.15;;;3.95;;
21554;SDS011;10938;44.794;-0.676;2022-10-31T16:31:39;15.50;;;4.80;;
21554;SDS011;10938;44.794;-0.676;2022-10-31T16:34:15;14.88;;;3.60;;
21554;SDS011;10938;44.794;-0.676;2022-10-31T16:36:44;8.40;;;4.00;;
21554;SDS011;10938;44.794;-0.676;2022-10-31T16:39:10;7.95;;;4.38;;
21554;SDS011;10938;44.794;-0.676;2022-10-31T16:41:39;7.43;;;3.78;;
21554;SDS011;10938;44.794;-0.676;2022-10-31T16:44:12;10.85;;;3.78;;
21554;SDS011;10938;44.794;-0.676;2022-10-31T16:46:41;9.00;;;3.87;;
21554;SDS011;10938;44.794;-0.676;2022-10-31T16:49:08;11.93;;;4.28;;
21554;SDS011;10938;44.794;-0.676;2022-10-31T16:51:34;10.57;;;4.00;;
21554;SDS011;10938;44.794;-0.676;2022-10-31T16:53:59;8.85;;;3.67;;
21554;SDS011;10938;44.794;-0.676;2022-10-31T16:56:29;8.95;;;4.20;;
21554;SDS011;10938;44.794;-0.676;2022-10-31T16:58:56;7.25;;;3.58;;
21554;SDS011;10938;44.794;-0.676;2022-10-31T17:01:23;7.30;;;3.80;;
21554;SDS011;10938;44.794;-0.676;2022-10-31T17:03:49;14.98;;;4.18;;
21554;SDS011;10938;44.794;-0.676;2022-10-31T17:06:14;10.65;;;4.00;;
21554;SDS011;10938;44.794;-0.676;2022-10-31T17:08:40;10.60;;;3.50;;